Terminal Aerodrome Forecast
Issued by NWS

Home | Current Version | Previous Version | Text Only | Print | Product List | Glossary On
Versions: 1 2 3 4 5 6 7 8 9 10 11 12 13 14 15 16 17 18 19 20 21 22 23 24 25
690
FTUS43 KDLH 151120
TAFHYR
TAF
KHYR 151120Z 1512/1612 29003KT 1SM -DZ BR OVC004
     FM151500 29008KT 3SM BR VCSH OVC007
     FM151800 30010G17KT P6SM VCSH OVC015
     FM160100 32007KT P6SM OVC015
     FM160800 35004KT P6SM BKN015=

USA.gov is the U.S. government's official web portal to all federal, state and local government web resources and services.